< < Back
Terminal Aerodrome Forecast


Current Version              Previous Versions:   1  2  3  4  5  6  7  8  9  

Terminal Aerodrome Forecast

148
FTUS44 KBMX 301700
TAFBHM
TAF
KBHM 301722Z 3018/3118 01006KT P6SM SCT050=

Latest METAR

775
SAUS70 KWBC 310700 RRB
MTRBHM
METAR KBHM 310653Z 00000KT 10SM BKN250 23/13 A3007 RMK AO2 SLP174
T02280133


USA.gov is the U.S. government's official web portal to all federal, state and local government web resources and services.